createdAt,value
2023-02-11T00:00:01.621Z,27.93
2023-02-11T00:02:33.278Z,27.07
2023-02-11T00:05:03.228Z,27.50
2023-02-11T00:07:34.196Z,28.27
2023-02-11T00:10:03.675Z,27.40
2023-02-11T00:12:32.667Z,28.23
2023-02-11T00:15:01.218Z,28.20
2023-02-11T00:17:30.153Z,27.00
2023-02-11T00:20:01.249Z,28.43
2023-02-11T00:22:30.081Z,28.27
2023-02-11T00:25:02.253Z,29.33
2023-02-11T00:27:31.117Z,28.33
2023-02-11T00:30:02.637Z,29.07
2023-02-11T00:32:35.564Z,26.47
2023-02-11T00:35:04.079Z,26.00
2023-02-11T00:37:36.521Z,25.53
2023-02-11T00:40:06.992Z,25.10
2023-02-11T00:42:35.956Z,24.87
2023-02-11T00:45:05.375Z,24.40
2023-02-11T00:47:37.120Z,25.80
2023-02-11T00:50:07.614Z,24.57
2023-02-11T00:52:36.041Z,26.37
2023-02-11T00:55:06.674Z,25.03
2023-02-11T00:57:35.125Z,25.63
2023-02-11T01:00:05.660Z,25.40
2023-02-11T01:02:34.821Z,24.67
2023-02-11T01:05:05.735Z,24.60
2023-02-11T01:07:34.592Z,23.07
2023-02-11T01:10:04.335Z,23.30
2023-02-11T01:12:36.698Z,24.73
2023-02-11T01:15:06.791Z,24.00
2023-02-11T01:17:36.412Z,24.10
2023-02-11T01:20:05.898Z,23.10
2023-02-11T01:22:39.789Z,24.13
2023-02-11T01:25:09.154Z,23.23
2023-02-11T01:27:39.174Z,22.90
2023-02-11T01:30:09.742Z,24.10
2023-02-11T01:32:38.340Z,24.80
2023-02-11T01:35:07.783Z,24.73
2023-02-11T01:37:37.830Z,25.17
2023-02-11T01:40:08.365Z,25.27
2023-02-11T01:42:38.244Z,23.87
2023-02-11T01:45:43.876Z,23.13
2023-02-11T01:48:16.553Z,22.47
2023-02-11T01:50:49.681Z,23.97
2023-02-11T01:53:36.245Z,23.17
2023-02-11T01:56:23.240Z,23.43
2023-02-11T01:58:54.604Z,23.13
2023-02-11T02:01:26.986Z,22.50
2023-02-11T02:04:02.249Z,23.97
2023-02-11T02:06:36.963Z,25.33
2023-02-11T02:09:09.212Z,22.60
2023-02-11T02:11:40.926Z,22.60
2023-02-11T02:14:11.536Z,21.57
2023-02-11T02:16:40.094Z,20.70
2023-02-11T02:19:53.927Z,20.13
2023-02-11T02:22:56.673Z,18.57
2023-02-11T02:25:58.330Z,20.27
2023-02-11T02:29:01.076Z,20.70
2023-02-11T02:31:52.499Z,19.43
2023-02-11T02:34:29.257Z,20.77
2023-02-11T02:37:06.082Z,19.53
2023-02-11T02:39:38.663Z,20.63
2023-02-11T02:42:07.991Z,22.27
2023-02-11T02:44:38.499Z,23.50
2023-02-11T02:47:09.738Z,23.00
2023-02-11T02:49:39.728Z,26.97
2023-02-11T02:52:31.563Z,27.07
2023-02-11T02:55:21.801Z,26.13
2023-02-11T02:58:26.695Z,25.07
2023-02-11T03:01:04.878Z,22.00
2023-02-11T03:03:44.120Z,22.93
2023-02-11T03:06:22.702Z,24.70
2023-02-11T03:08:58.052Z,25.20
2023-02-11T03:11:30.904Z,26.57
2023-02-11T03:14:03.197Z,26.30
2023-02-11T03:16:36.137Z,26.20
2023-02-11T03:19:12.049Z,26.37
2023-02-11T03:21:44.179Z,25.30
2023-02-11T03:24:16.556Z,28.43
2023-02-11T03:26:49.903Z,27.97
2023-02-11T03:29:32.715Z,30.37
2023-02-11T03:32:07.533Z,32.43
2023-02-11T03:34:43.313Z,32.30
2023-02-11T03:37:17.722Z,28.40
2023-02-11T03:39:51.951Z,28.63
2023-02-11T03:42:21.467Z,27.70
2023-02-11T03:44:54.132Z,28.03
2023-02-11T03:47:27.175Z,29.83
2023-02-11T03:49:58.674Z,29.80
2023-02-11T03:52:31.789Z,28.93
2023-02-11T03:55:02.820Z,30.10
2023-02-11T03:57:34.205Z,28.90
2023-02-11T04:00:02.868Z,27.50
2023-02-11T04:02:40.798Z,28.30
2023-02-11T04:05:13.210Z,29.13
2023-02-11T04:07:43.452Z,30.07
2023-02-11T04:10:13.649Z,29.53
2023-02-11T04:12:45.144Z,30.13
2023-02-11T04:15:14.190Z,30.17
2023-02-11T04:17:43.543Z,27.60
2023-02-11T04:20:13.943Z,26.13
2023-02-11T04:22:46.713Z,28.23
2023-02-11T04:25:15.292Z,26.77
2023-02-11T04:27:43.960Z,27.47
2023-02-11T04:30:13.508Z,26.73
2023-02-11T04:32:43.318Z,26.10
2023-02-11T04:35:11.684Z,27.60
2023-02-11T04:37:43.844Z,25.50
2023-02-11T04:40:12.877Z,26.20
2023-02-11T04:42:41.377Z,26.53
2023-02-11T04:45:10.553Z,26.13
2023-02-11T04:47:39.004Z,25.40
2023-02-11T04:50:07.894Z,27.00
2023-02-11T04:52:36.481Z,28.07
2023-02-11T04:55:07.031Z,29.07
2023-02-11T04:57:35.516Z,29.77
2023-02-11T05:00:04.011Z,28.80
2023-02-11T05:02:32.479Z,27.00
2023-02-11T05:05:01.074Z,27.93
2023-02-11T05:07:29.640Z,31.13
2023-02-11T05:09:58.092Z,29.07
2023-02-11T05:12:28.103Z,28.10
2023-02-11T05:14:56.815Z,26.80
2023-02-11T05:17:25.228Z,28.30
2023-02-11T05:19:53.655Z,27.50
2023-02-11T05:22:22.435Z,26.07
2023-02-11T05:24:50.839Z,25.87
2023-02-11T05:27:19.305Z,25.90
2023-02-11T05:29:50.022Z,27.23
2023-02-11T05:32:18.547Z,26.43
2023-02-11T05:34:47.895Z,25.77
2023-02-11T05:37:16.821Z,26.37
2023-02-11T05:39:47.711Z,26.23
2023-02-11T05:42:16.421Z,25.87
2023-02-11T05:44:47.989Z,26.13
2023-02-11T05:47:19.242Z,25.10
2023-02-11T05:49:48.576Z,27.37
2023-02-11T05:52:19.540Z,25.57
2023-02-11T05:54:48.549Z,26.47
2023-02-11T05:57:20.397Z,24.40
2023-02-11T05:59:48.916Z,25.73
2023-02-11T06:02:19.262Z,25.13
2023-02-11T06:04:48.448Z,24.20
2023-02-11T06:07:17.769Z,23.23
2023-02-11T06:09:48.392Z,23.27
2023-02-11T06:12:17.050Z,24.73
2023-02-11T06:14:45.508Z,23.50
2023-02-11T06:17:15.657Z,22.67
2023-02-11T06:19:45.969Z,23.30
2023-02-11T06:22:18.803Z,22.73
2023-02-11T06:25:00.857Z,24.80
2023-02-11T06:27:30.145Z,23.20
2023-02-11T06:30:01.566Z,23.50
2023-02-11T06:32:43.374Z,23.87
2023-02-11T06:35:14.963Z,23.20
2023-02-11T06:37:43.905Z,23.23
2023-02-11T06:40:13.220Z,24.07
2023-02-11T06:42:41.788Z,22.50
2023-02-11T22:30:31.860Z,16.50
2023-02-11T22:33:00.364Z,16.07
2023-02-11T22:35:29.473Z,15.83
2023-02-11T22:37:58.058Z,15.13
2023-02-11T22:40:26.541Z,16.03
2023-02-11T22:42:54.901Z,14.80
2023-02-11T22:45:23.960Z,14.17
2023-02-11T22:47:54.225Z,13.20
2023-02-11T22:50:22.699Z,13.27
2023-02-11T22:52:50.998Z,13.10
2023-02-11T22:55:19.372Z,12.67
2023-02-11T22:57:48.261Z,13.83
2023-02-11T23:00:18.334Z,13.13
2023-02-11T23:02:46.684Z,12.63
2023-02-11T23:05:16.726Z,12.40
2023-02-11T23:07:45.228Z,12.97
2023-02-11T23:10:13.540Z,15.03
2023-02-11T23:12:41.806Z,13.20
2023-02-11T23:15:10.425Z,14.43
2023-02-11T23:17:38.723Z,14.27
2023-02-11T23:20:11.278Z,14.90
2023-02-11T23:22:41.071Z,14.40
2023-02-11T23:25:09.566Z,14.30
2023-02-11T23:27:38.046Z,13.70
2023-02-11T23:30:08.415Z,14.57
2023-02-11T23:32:39.389Z,14.30
2023-02-11T23:35:07.976Z,14.10
2023-02-11T23:37:36.954Z,13.10
2023-02-11T23:40:08.270Z,13.03
2023-02-11T23:42:37.326Z,13.07
2023-02-11T23:45:06.824Z,12.80
2023-02-11T23:47:35.892Z,12.27
2023-02-11T23:50:06.299Z,11.70
2023-02-11T23:52:34.676Z,11.80
2023-02-11T23:55:03.187Z,11.40
2023-02-11T23:57:35.099Z,11.70
